Time;durP1;ratioP1;P1;durP2;ratioP2;P2;SDS_P1;SDS_P2;PMS_P1;PMS_P2;Temp;Humidity;BMP_temperature;BMP_pressure;BME280_temperature;BME280_humidity;BME280_pressure;Samples;Min_cycle;Max_cycle;Signal;HPM_P1;HPM_P2
2022/06/24 00:02:10;;;;;;;8.82;4.40;;;;;;;21.01;73.23;99662.22;5040442;28;20208;-68
2022/06/24 00:04:36;;;;;;;8.13;4.28;;;;;;;21.06;72.84;99661.50;5042375;28;20109;-68
2022/06/24 00:07:12;;;;;;;7.72;4.78;;;;;;;20.98;72.54;99657.28;5040564;28;20029;-69
2022/06/24 00:09:40;;;;;;;9.25;4.63;;;;;;;20.65;72.76;99655.06;5039914;28;20104;-68
2022/06/24 00:12:08;;;;;;;5.60;3.90;;;;;;;20.60;74.32;99657.63;5039264;28;20028;-68
2022/06/24 00:14:36;;;;;;;7.43;4.72;;;;;;;20.62;74.40;99658.22;5039142;28;20038;-69
2022/06/24 00:17:04;;;;;;;11.30;5.07;;;;;;;20.65;74.29;99665.84;5039449;28;20029;-68
2022/06/24 00:19:32;;;;;;;9.52;4.60;;;;;;;20.49;75.33;99664.63;5037105;28;20025;-68
2022/06/24 00:22:10;;;;;;;6.65;4.15;;;;;;;20.68;74.93;99663.50;5037827;28;20052;-69
2022/06/24 00:24:37;;;;;;;9.30;4.70;;;;;;;20.80;74.01;99660.84;5041198;28;20044;-68
2022/06/24 00:27:04;;;;;;;9.05;4.22;;;;;;;20.86;73.24;99656.44;5038826;28;20175;-68
2022/06/24 00:29:32;;;;;;;6.90;4.22;;;;;;;20.89;73.54;99658.69;5037309;28;20112;-68
2022/06/24 00:32:08;;;;;;;8.93;3.85;;;;;;;20.92;72.28;99652.81;5040097;28;20076;-68
2022/06/24 00:34:36;;;;;;;6.82;3.83;;;;;;;20.82;72.71;99648.00;5041102;28;20033;-68
2022/06/24 00:37:24;;;;;;;8.60;4.28;;;;;;;20.75;73.08;99644.56;5042713;28;20290;-68
2022/06/24 00:39:50;;;;;;;13.30;4.70;;;;;;;20.79;72.70;99643.06;5040445;28;20049;-69
2022/06/24 00:42:18;;;;;;;8.18;4.35;;;;;;;20.80;72.06;99639.31;5038998;28;20049;-69
2022/06/24 00:44:53;;;;;;;8.38;4.00;;;;;;;20.78;72.69;99636.03;5040224;28;20314;-69
2022/06/24 00:47:22;;;;;;;8.45;3.45;;;;;;;20.67;71.98;99639.53;5037602;28;20025;-69
2022/06/24 00:49:49;;;;;;;8.80;3.83;;;;;;;20.33;72.68;99646.41;5038920;28;20342;-68
2022/06/24 00:52:15;;;;;;;5.95;3.85;;;;;;;20.14;73.98;99628.66;5037536;28;20049;-68
2022/06/24 00:54:43;;;;;;;7.72;4.72;;;;;;;20.20;74.53;99643.88;5039404;28;20151;-68
2022/06/24 00:57:09;;;;;;;9.77;4.25;;;;;;;20.27;74.41;99640.06;5039928;28;20037;-69
2022/06/24 00:59:36;;;;;;;6.07;4.18;;;;;;;20.43;73.21;99637.81;5041704;28;20067;-69
2022/06/24 01:02:06;;;;;;;8.63;4.20;;;;;;;20.53;72.86;99646.16;5038945;28;20303;-69
2022/06/24 01:04:33;;;;;;;9.90;3.88;;;;;;;20.55;72.22;99646.75;5038857;28;20033;-69
2022/06/24 01:06:58;;;;;;;8.65;3.85;;;;;;;20.51;71.86;99648.25;5038026;28;20338;-68
2022/06/24 01:09:24;;;;;;;6.57;4.20;;;;;;;20.26;72.56;99648.34;5039283;28;20041;-69
2022/06/24 01:11:50;;;;;;;8.77;4.07;;;;;;;20.36;72.22;99656.69;5037971;28;20029;-69
2022/06/24 01:14:15;;;;;;;6.65;3.97;;;;;;;20.43;71.77;99660.16;5037899;28;20033;-69
2022/06/24 01:16:41;;;;;;;8.82;4.05;;;;;;;20.45;71.77;99659.91;5038353;28;20084;-69
2022/06/24 01:19:09;;;;;;;14.75;3.80;;;;;;;20.42;71.30;99655.81;5038332;28;20092;-68
2022/06/24 01:21:43;;;;;;;5.93;3.80;;;;;;;20.32;72.29;99666.28;5039064;28;20373;-68
2022/06/24 01:24:08;;;;;;;8.10;4.03;;;;;;;20.30;72.82;99671.06;5038789;28;20372;-69
2022/06/24 01:26:39;;;;;;;9.65;4.13;;;;;;;20.21;72.71;99658.97;5037832;28;20053;-69
2022/06/24 01:29:04;;;;;;;8.68;4.25;;;;;;;20.23;73.39;99667.63;5034699;28;20033;-68
2022/06/24 01:31:30;;;;;;;7.20;3.97;;;;;;;20.23;73.18;99681.06;5036574;28;20044;-68
2022/06/24 01:33:56;;;;;;;6.82;3.92;;;;;;;20.26;73.10;99673.38;5035611;28;20017;-68
2022/06/24 01:36:22;;;;;;;7.10;4.40;;;;;;;20.32;72.90;99675.16;5038731;28;20327;-68
2022/06/24 01:38:48;;;;;;;8.20;4.10;;;;;;;20.27;72.50;99666.94;5038316;28;20034;-68
2022/06/24 01:41:13;;;;;;;9.07;4.65;;;;;;;20.35;71.65;99674.69;5037489;28;20021;-68
2022/06/24 01:43:39;;;;;;;10.73;3.70;;;;;;;20.40;71.47;99671.38;5038824;28;20057;-68
2022/06/24 01:46:04;;;;;;;8.32;3.88;;;;;;;20.35;71.63;99673.88;5037457;28;20519;-69
2022/06/24 01:48:30;;;;;;;7.78;3.72;;;;;;;20.34;71.42;99680.31;5037690;28;20037;-68
2022/06/24 01:50:55;;;;;;;11.13;4.25;;;;;;;20.32;71.10;99671.66;5038344;28;20021;-69
2022/06/24 01:53:21;;;;;;;6.47;3.92;;;;;;;20.14;71.92;99679.75;5037370;28;20041;-69
2022/06/24 01:55:47;;;;;;;10.02;4.07;;;;;;;20.11;72.20;99674.81;5037740;28;20337;-68
2022/06/24 01:58:12;;;;;;;4.88;4.05;;;;;;;20.28;71.64;99681.22;5037901;28;20187;-68
2022/06/24 02:00:38;;;;;;;8.50;4.05;;;;;;;20.27;71.71;99676.88;5038641;28;20096;-68
2022/06/24 02:03:07;;;;;;;8.38;4.25;;;;;;;20.25;71.79;99663.66;5037351;28;20033;-68
2022/06/24 02:05:33;;;;;;;6.88;3.92;;;;;;;20.18;72.18;99675.56;5035355;28;20223;-69
2022/06/24 02:07:59;;;;;;;8.85;5.18;;;;;;;20.23;72.17;99668.44;5037407;28;20033;-69
2022/06/24 02:13:28;;;;;;;10.77;4.85;;;;;;;20.25;71.73;99663.66;5040250;28;20056;-69
2022/06/24 02:16:00;;;;;;;10.05;4.72;;;;;;;20.28;72.25;99660.53;5038036;28;20021;-68
2022/06/24 02:18:27;;;;;;;10.93;5.10;;;;;;;20.25;71.68;99658.28;5037758;28;20037;-68
2022/06/24 02:20:54;;;;;;;17.83;5.43;;;;;;;20.19;71.88;99653.81;5037271;28;20091;-68
2022/06/24 02:23:20;;;;;;;7.20;4.80;;;;;;;20.04;71.86;99645.34;5040373;28;20072;-68
2022/06/24 02:25:47;;;;;;;11.75;5.13;;;;;;;20.07;72.12;99661.00;5039389;28;20518;-68
2022/06/24 02:28:13;;;;;;;9.43;5.00;;;;;;;20.06;72.14;99662.06;5038009;28;20041;-69
2022/06/24 02:30:39;;;;;;;10.57;4.68;;;;;;;20.15;71.84;99667.94;5036820;28;20326;-68
2022/06/24 02:33:05;;;;;;;14.68;5.22;;;;;;;20.17;71.26;99661.28;5037329;28;20044;-69
2022/06/24 02:35:31;;;;;;;11.98;5.15;;;;;;;20.04;71.72;99659.59;5037533;28;20026;-68
2022/06/24 02:37:56;;;;;;;11.43;4.40;;;;;;;20.00;71.81;99654.88;5036964;28;20029;-69
2022/06/24 02:43:18;;;;;;;9.43;4.93;;;;;;;19.88;72.52;99659.38;5037890;28;20346;-68
2022/06/24 02:45:46;;;;;;;11.15;5.10;;;;;;;19.94;72.51;99648.56;5037956;28;20034;-68
2022/06/24 02:48:13;;;;;;;11.05;4.55;;;;;;;19.98;72.02;99659.66;5036222;28;20033;-69
2022/06/24 02:50:43;;;;;;;10.20;4.78;;;;;;;19.95;72.03;99666.31;5040023;28;20030;-68
2022/06/24 02:53:09;;;;;;;10.65;4.63;;;;;;;19.95;72.03;99666.31;5038966;28;20040;-69
2022/06/24 02:55:35;;;;;;;9.77;4.57;;;;;;;19.94;72.10;99671.91;5037762;28;20092;-68
2022/06/24 02:58:01;;;;;;;9.38;4.25;;;;;;;19.93;72.10;99675.66;5036443;28;20041;-68
2022/06/24 03:00:27;;;;;;;11.77;5.03;;;;;;;19.85;72.26;99667.88;5036850;28;20090;-68
2022/06/24 03:02:52;;;;;;;17.48;5.85;;;;;;;19.88;72.87;99683.56;5037700;28;20037;-68
2022/06/24 03:05:18;;;;;;;13.43;6.13;;;;;;;19.76;73.74;99681.59;5036775;28;20033;-68
2022/06/24 03:07:43;;;;;;;11.23;5.63;;;;;;;19.85;73.35;99670.56;5036592;28;20049;-69
2022/06/24 03:10:09;;;;;;;13.18;6.35;;;;;;;19.89;73.42;99669.09;5037740;28;20046;-69
2022/06/24 03:12:34;;;;;;;12.55;6.57;;;;;;;19.83;73.82;99676.16;5037216;28;20042;-68
2022/06/24 03:15:00;;;;;;;13.38;6.70;;;;;;;19.82;74.11;99673.72;5039942;28;20037;-68
2022/06/24 03:17:25;;;;;;;18.17;6.43;;;;;;;19.85;74.38;99670.56;5041632;28;20029;-68
2022/06/24 03:19:51;;;;;;;18.25;7.50;;;;;;;19.76;74.63;99667.34;5043848;28;20035;-68
2022/06/24 03:22:16;;;;;;;17.90;6.47;;;;;;;19.75;74.62;99671.88;5043890;28;20393;-68
2022/06/24 03:24:42;;;;;;;12.45;6.55;;;;;;;19.56;74.91;99678.28;5040044;28;20036;-69
2022/06/24 03:27:07;;;;;;;16.30;7.38;;;;;;;19.51;75.21;99679.97;5040550;28;20025;-68
2022/06/24 03:29:33;;;;;;;11.18;6.07;;;;;;;19.70;73.84;99689.72;5039565;28;20033;-68
2022/06/24 03:31:58;;;;;;;12.02;5.45;;;;;;;19.69;73.44;99691.59;5040647;28;20071;-68
2022/06/24 03:34:24;;;;;;;15.75;5.90;;;;;;;19.67;73.50;99682.94;5040456;28;20052;-68
2022/06/24 03:36:50;;;;;;;11.00;5.38;;;;;;;19.58;73.82;99683.44;5040189;28;20059;-68
2022/06/24 03:39:15;;;;;;;12.73;5.28;;;;;;;19.39;73.49;99680.69;5041116;28;20041;-68
2022/06/24 03:41:41;;;;;;;13.80;6.25;;;;;;;19.40;73.16;99676.97;5039537;28;20266;-68
2022/06/24 03:44:06;;;;;;;14.07;6.22;;;;;;;19.29;74.15;99687.59;5040076;28;20041;-68
2022/06/24 03:46:32;;;;;;;12.70;5.20;;;;;;;19.48;73.19;99675.84;5041548;28;20025;-68
2022/06/24 03:48:57;;;;;;;10.82;4.78;;;;;;;19.62;72.53;99687.31;5043088;28;20041;-68
2022/06/24 03:51:23;;;;;;;13.23;5.18;;;;;;;19.71;71.70;99684.13;5041255;28;20029;-68
2022/06/24 03:53:48;;;;;;;8.55;5.07;;;;;;;19.73;71.89;99683.91;5040233;28;20046;-69
2022/06/24 03:56:13;;;;;;;13.25;5.63;;;;;;;19.92;71.28;99699.00;5039407;28;21275;-68
2022/06/24 03:58:39;;;;;;;10.38;4.85;;;;;;;20.02;70.85;99687.75;5039488;28;20345;-68
2022/06/24 04:01:04;;;;;;;10.60;4.70;;;;;;;19.99;71.51;99689.00;5039911;28;20040;-69
2022/06/24 04:03:30;;;;;;;14.23;5.50;;;;;;;19.63;72.95;99675.53;5039153;28;20338;-69
2022/06/24 04:05:56;;;;;;;10.90;5.57;;;;;;;19.79;72.82;99692.97;5040199;28;20381;-68
2022/06/24 04:08:21;;;;;;;15.25;6.13;;;;;;;19.87;73.50;99693.50;5038991;28;20600;-68
2022/06/24 04:10:47;;;;;;;11.52;6.03;;;;;;;20.03;73.99;99686.69;5039338;28;20231;-68
2022/06/24 04:13:12;;;;;;;15.40;6.93;;;;;;;20.25;73.64;99687.88;5039890;28;20053;-69
2022/06/24 04:15:46;;;;;;;18.40;6.35;;;;;;;20.42;73.92;99679.19;5037807;28;20220;-69
2022/06/24 04:18:12;;;;;;;17.38;7.18;;;;;;;20.55;73.56;99681.72;5037120;28;20043;-68
2022/06/24 04:20:37;;;;;;;13.05;7.38;;;;;;;20.64;73.63;99677.66;5039822;28;20029;-68
2022/06/24 04:23:03;;;;;;;16.23;8.20;;;;;;;20.75;73.61;99671.47;5039088;28;20080;-69
2022/06/24 04:25:28;;;;;;;12.43;7.50;;;;;;;20.84;73.29;99658.53;5035842;28;20036;-72
2022/06/24 04:27:54;;;;;;;18.33;8.15;;;;;;;20.78;74.07;99656.75;5038597;28;20033;-68
2022/06/24 04:30:19;;;;;;;16.80;7.88;;;;;;;20.98;73.95;99663.50;5038684;28;20025;-68
2022/06/24 04:32:44;;;;;;;14.63;8.32;;;;;;;21.09;73.80;99661.03;5039937;28;20227;-68
2022/06/24 04:35:10;;;;;;;12.40;7.68;;;;;;;21.15;73.53;99652.84;5038577;28;20037;-68
2022/06/24 04:37:40;;;;;;;16.45;8.23;;;;;;;21.19;73.45;99656.72;5039362;28;20052;-68
2022/06/24 04:40:07;;;;;;;16.10;8.13;;;;;;;21.39;73.17;99650.19;5039286;28;20025;-69
2022/06/24 04:42:32;;;;;;;18.15;8.35;;;;;;;21.59;72.48;99650.66;5038562;28;20175;-68
2022/06/24 04:44:58;;;;;;;14.00;8.07;;;;;;;21.73;71.84;99648.53;5036837;28;20029;-68
2022/06/24 04:47:23;;;;;;;12.57;8.07;;;;;;;22.14;70.38;99647.56;5039423;28;20033;-69
2022/06/24 04:49:48;;;;;;;16.27;7.97;;;;;;;22.48;69.39;99653.88;5038621;28;20033;-69
2022/06/24 04:52:15;;;;;;;20.35;8.38;;;;;;;22.80;68.03;99660.41;5039463;28;20033;-69
2022/06/24 04:54:42;;;;;;;18.80;8.32;;;;;;;22.70;68.83;99665.59;5038266;28;20294;-68
2022/06/24 04:57:07;;;;;;;15.95;7.35;;;;;;;22.41;70.40;99664.81;5040077;28;20259;-69
2022/06/24 04:59:33;;;;;;;12.98;7.28;;;;;;;22.36;70.73;99667.41;5040154;28;20044;-69
2022/06/24 05:01:59;;;;;;;18.52;7.25;;;;;;;22.57;70.15;99669.41;5040031;28;20041;-69
2022/06/24 05:04:24;;;;;;;20.05;7.63;;;;;;;22.70;68.83;99672.88;5038279;28;20353;-68
2022/06/24 05:06:50;;;;;;;17.23;7.35;;;;;;;22.60;69.31;99678.91;5038598;28;20030;-69
2022/06/24 05:09:17;;;;;;;17.10;7.10;;;;;;;22.90;68.48;99668.72;5040902;28;20033;-69
2022/06/24 05:11:43;;;;;;;10.40;6.70;;;;;;;23.15;68.09;99665.59;5041262;28;20034;-69
2022/06/24 05:14:08;;;;;;;13.45;6.53;;;;;;;23.22;67.34;99665.44;5037432;28;20358;-69
2022/06/24 05:16:34;;;;;;;14.65;6.82;;;;;;;23.49;67.00;99671.81;5038906;28;20041;-69
2022/06/24 05:18:59;;;;;;;14.88;7.15;;;;;;;23.72;66.27;99675.38;5037751;28;20092;-68
2022/06/24 05:21:25;;;;;;;11.20;6.93;;;;;;;23.46;66.88;99674.19;5039133;28;20090;-68
2022/06/24 05:23:50;;;;;;;13.68;7.13;;;;;;;23.76;66.18;99677.34;5038036;28;20379;-69
2022/06/24 05:26:17;;;;;;;13.27;7.82;;;;;;;23.64;66.82;99673.94;5038288;28;20033;-69
2022/06/24 05:28:42;;;;;;;16.40;7.97;;;;;;;23.78;66.56;99675.22;5038375;28;20230;-68
2022/06/24 05:31:08;;;;;;;15.85;7.78;;;;;;;24.12;65.36;99673.25;5037896;28;20030;-69
2022/06/24 05:33:33;;;;;;;18.42;8.15;;;;;;;23.99;66.07;99679.03;5038510;28;20215;-69
2022/06/24 05:36:00;;;;;;;13.52;8.07;;;;;;;24.39;65.55;99680.63;5037453;28;20283;-68
2022/06/24 05:38:25;;;;;;;17.33;8.40;;;;;;;24.51;64.91;99692.09;5035884;28;20030;-69
2022/06/24 05:40:52;;;;;;;20.17;8.93;;;;;;;24.95;63.51;99697.41;5037757;28;20060;-69
2022/06/24 05:43:18;;;;;;;20.80;9.00;;;;;;;25.03;62.67;99700.53;5037583;28;20087;-69
2022/06/24 05:45:44;;;;;;;13.40;8.60;;;;;;;25.01;62.17;99696.44;5038697;28;20354;-69
2022/06/24 05:48:09;;;;;;;17.60;8.77;;;;;;;25.22;61.46;99711.81;5038816;28;20040;-68
2022/06/24 05:50:39;;;;;;;15.73;8.05;;;;;;;25.23;61.65;99705.31;5040738;28;20033;-69
2022/06/24 05:55:50;;;;;;;15.05;7.40;;;;;;;25.88;58.15;99690.56;5037159;28;20028;-69
2022/06/24 05:58:16;;;;;;;15.68;7.18;;;;;;;26.09;57.35;99683.38;5038270;28;20033;-69
2022/06/24 06:00:42;;;;;;;12.27;6.38;;;;;;;26.49;57.01;99684.63;5036916;28;20097;-69
2022/06/24 06:03:08;;;;;;;14.70;6.80;;;;;;;26.52;56.91;99687.63;5040802;28;20041;-69
2022/06/24 06:05:33;;;;;;;12.73;6.20;;;;;;;26.71;54.77;99672.44;5040439;28;20075;-69
2022/06/24 06:07:59;;;;;;;10.68;5.10;;;;;;;26.60;55.10;99687.09;5035158;28;20095;-69
2022/06/24 06:10:24;;;;;;;14.15;5.70;;;;;;;26.59;55.86;99679.22;5035197;28;20018;-69
2022/06/24 06:12:50;;;;;;;9.02;5.65;;;;;;;26.82;54.85;99676.00;5036309;28;20116;-69
2022/06/24 06:15:15;;;;;;;9.52;5.68;;;;;;;27.29;53.60;99683.94;5037584;28;20083;-69
2022/06/24 06:17:41;;;;;;;9.10;5.82;;;;;;;26.98;54.18;99691.25;5036916;28;20049;-69
2022/06/24 06:20:07;;;;;;;13.05;5.80;;;;;;;27.34;53.34;99688.56;5036709;28;20032;-69
2022/06/24 06:22:32;;;;;;;9.27;6.05;;;;;;;27.63;52.17;99686.09;5034394;28;20358;-69
2022/06/24 06:24:58;;;;;;;10.25;5.07;;;;;;;27.89;51.06;99675.94;5037855;28;20034;-69
2022/06/24 06:27:23;;;;;;;15.77;5.15;;;;;;;28.10;51.32;99665.81;5037022;28;20033;-69
2022/06/24 06:29:49;;;;;;;9.65;4.78;;;;;;;28.07;50.46;99679.97;5037670;28;20044;-69
2022/06/24 06:32:14;;;;;;;11.25;4.18;;;;;;;27.92;50.52;99675.38;5036857;28;20266;-69
2022/06/24 06:34:39;;;;;;;9.25;4.47;;;;;;;28.21;50.19;99686.47;5037953;28;20053;-69
2022/06/24 06:37:05;;;;;;;8.27;4.45;;;;;;;28.37;49.60;99685.31;5036929;28;20040;-69
2022/06/24 06:39:31;;;;;;;11.55;4.68;;;;;;;28.62;47.31;99687.09;5019410;28;20101;-69
2022/06/24 06:41:56;;;;;;;9.15;4.57;;;;;;;28.71;46.87;99690.03;5035703;28;20247;-69
2022/06/24 06:44:22;;;;;;;8.00;4.13;;;;;;;29.02;45.87;99688.72;5036176;28;20044;-69
2022/06/24 06:46:48;;;;;;;9.60;3.85;;;;;;;28.97;45.62;99693.41;5037871;28;20029;-69
2022/06/24 06:49:14;;;;;;;12.15;5.20;;;;;;;29.15;47.06;99701.75;5036805;28;20041;-70
2022/06/24 06:51:39;;;;;;;8.40;4.13;;;;;;;29.11;47.50;99681.56;5039371;28;20029;-69
2022/06/24 06:54:05;;;;;;;7.97;4.32;;;;;;;29.31;46.47;99682.53;5041503;28;20140;-69
2022/06/24 06:56:30;;;;;;;9.57;5.15;;;;;;;29.46;46.39;99680.50;5038245;28;20506;-69
2022/06/24 06:58:56;;;;;;;14.15;4.68;;;;;;;29.25;47.21;99684.47;5041202;28;20304;-69
2022/06/24 07:01:21;;;;;;;10.15;5.05;;;;;;;29.37;46.63;99678.66;5040077;28;20066;-69
2022/06/24 07:03:46;;;;;;;12.27;5.13;;;;;;;29.45;46.55;99676.13;5040005;28;20041;-69
2022/06/24 07:06:12;;;;;;;7.57;4.80;;;;;;;29.47;46.40;99684.03;5038230;28;20070;-69
2022/06/24 07:08:38;;;;;;;10.50;3.92;;;;;;;29.61;45.48;99693.16;5039809;28;20036;-69
2022/06/24 07:11:04;;;;;;;9.57;4.82;;;;;;;29.56;44.48;99682.31;5040413;28;20267;-69
2022/06/24 07:13:30;;;;;;;6.53;4.05;;;;;;;29.49;43.89;99690.81;5038999;28;20091;-69
2022/06/24 07:15:55;;;;;;;13.23;3.58;;;;;;;29.67;44.11;99683.81;5039379;28;20108;-69
2022/06/24 07:18:21;;;;;;;9.95;4.28;;;;;;;29.76;43.68;99694.91;5039888;28;20319;-69
2022/06/24 07:20:46;;;;;;;9.38;4.00;;;;;;;29.54;44.71;99682.59;5039374;28;20286;-69
2022/06/24 07:23:12;;;;;;;9.48;3.92;;;;;;;29.72;43.39;99677.50;5039677;28;20037;-69
2022/06/24 07:25:37;;;;;;;26.77;4.60;;;;;;;29.77;43.61;99672.78;5040478;28;20030;-69
2022/06/24 07:28:04;;;;;;;6.57;3.63;;;;;;;29.64;43.25;99667.22;5039046;28;20079;-69
2022/06/24 07:30:30;;;;;;;7.78;3.60;;;;;;;29.79;42.71;99669.78;5040188;28;20065;-68
2022/06/24 07:32:56;;;;;;;6.28;3.20;;;;;;;30.13;42.87;99675.13;5039263;28;20041;-69
2022/06/24 07:35:22;;;;;;;9.60;4.20;;;;;;;30.34;41.57;99642.91;5037552;28;20036;-69
2022/06/24 07:37:48;;;;;;;4.40;3.47;;;;;;;30.63;42.23;99662.72;5039433;28;20045;-69
2022/06/24 07:40:15;;;;;;;8.73;3.45;;;;;;;30.52;41.99;99653.03;5038830;28;20252;-69
2022/06/24 07:42:41;;;;;;;9.73;3.55;;;;;;;30.83;41.69;99642.47;5039238;28;20319;-69
2022/06/24 07:45:07;;;;;;;7.30;3.30;;;;;;;31.13;41.48;99641.97;5039412;28;20026;-69
2022/06/24 07:47:35;;;;;;;11.27;3.15;;;;;;;31.02;40.58;99635.03;5038701;28;20036;-69
2022/06/24 07:50:02;;;;;;;8.38;3.08;;;;;;;30.85;40.17;99634.78;5039794;28;20266;-69
2022/06/24 07:52:27;;;;;;;12.07;3.72;;;;;;;30.81;40.83;99631.03;5054618;28;20341;-70
2022/06/24 07:56:56;;;;;;;9.23;4.20;;;;;;;30.63;40.55;99629.94;5038453;28;20228;-71
2022/06/24 07:57:38;;;;;;;4.90;3.15;;;;;;;30.73;42.07;99621.59;5037757;28;20033;-70
2022/06/24 08:00:04;;;;;;;7.72;3.58;;;;;;;31.11;40.68;99618.75;5039537;28;20196;-69
2022/06/24 08:02:29;;;;;;;6.05;3.00;;;;;;;31.24;40.40;99622.69;5038316;28;20037;-69
2022/06/24 08:04:55;;;;;;;8.50;3.70;;;;;;;31.16;39.47;99623.34;5039058;28;20034;-67
2022/06/24 08:07:20;;;;;;;5.35;3.50;;;;;;;31.03;40.78;99625.72;5038536;28;20029;-67
2022/06/24 08:09:45;;;;;;;8.68;3.13;;;;;;;31.13;38.74;99613.78;5038230;28;20025;-67
2022/06/24 08:12:11;;;;;;;6.57;2.90;;;;;;;31.23;39.35;99624.63;5039126;28;20033;-69
2022/06/24 08:14:36;;;;;;;12.80;3.40;;;;;;;31.36;37.86;99632.03;5037934;28;20044;-69
2022/06/24 08:17:02;;;;;;;4.70;2.75;;;;;;;31.76;37.62;99618.69;5039686;28;20197;-69
2022/06/24 08:19:28;;;;;;;7.43;2.97;;;;;;;31.72;38.57;99634.09;5037060;28;20087;-69
2022/06/24 08:21:54;;;;;;;8.52;3.40;;;;;;;31.76;36.61;99626.91;5038488;28;20026;-69
2022/06/24 08:24:19;;;;;;;10.20;3.30;;;;;;;31.77;37.93;99627.72;5039400;28;20051;-69
2022/06/24 08:26:44;;;;;;;8.52;3.10;;;;;;;32.11;37.69;99630.81;5038121;28;20203;-69
2022/06/24 08:29:11;;;;;;;7.03;2.70;;;;;;;32.00;34.84;99629.41;5038438;28;20037;-68
2022/06/24 08:31:37;;;;;;;6.38;3.10;;;;;;;31.77;36.70;99624.97;5038598;28;20037;-67
2022/06/24 08:34:02;;;;;;;9.07;3.15;;;;;;;31.91;36.76;99620.31;5037815;28;20036;-69
2022/06/24 08:36:28;;;;;;;7.35;2.88;;;;;;;32.11;34.99;99622.59;5037670;28;20037;-69
2022/06/24 08:38:56;;;;;;;9.02;2.70;;;;;;;32.24;34.20;99624.53;5037744;28;20436;-69
2022/06/24 08:41:23;;;;;;;4.53;2.42;;;;;;;32.16;34.40;99616.19;5037719;28;20254;-69
2022/06/24 08:43:51;;;;;;;11.02;2.65;;;;;;;32.23;35.05;99611.13;5037097;28;20033;-69
2022/06/24 08:46:17;;;;;;;5.22;2.28;;;;;;;32.27;33.86;99613.00;5037593;28;20287;-69
2022/06/24 08:48:42;;;;;;;6.45;2.42;;;;;;;32.33;34.30;99605.47;5038365;28;20037;-69
2022/06/24 08:51:12;;;;;;;5.22;2.83;;;;;;;32.39;33.52;99604.22;5038260;28;20021;-69
2022/06/24 08:53:39;;;;;;;13.35;2.78;;;;;;;32.26;34.53;99613.31;5037590;28;20044;-67
2022/06/24 08:56:05;;;;;;;8.00;2.42;;;;;;;32.51;33.95;99611.91;5038589;28;20025;-67
2022/06/24 08:58:31;;;;;;;6.63;2.72;;;;;;;32.82;33.14;99610.06;5037118;28;20268;-67
2022/06/24 09:00:56;;;;;;;6.20;2.20;;;;;;;33.02;32.55;99600.50;5037304;28;20071;-67
2022/06/24 09:03:22;;;;;;;6.22;2.10;;;;;;;32.98;29.55;99608.56;5038119;28;20048;-67
2022/06/24 09:05:48;;;;;;;4.30;2.20;;;;;;;32.62;29.02;99611.34;5036948;28;20282;-67
2022/06/24 09:08:15;;;;;;;6.47;2.38;;;;;;;32.88;29.10;99606.06;5037330;28;20311;-67
2022/06/24 09:13:31;;;;;;;4.88;2.28;;;;;;;32.83;28.12;99606.19;5036757;28;20080;-67
2022/06/24 09:15:56;;;;;;;4.03;1.85;;;;;;;32.68;28.84;99609.28;5037673;28;20057;-67
2022/06/24 09:18:23;;;;;;;7.35;2.28;;;;;;;32.50;31.16;99599.31;5039525;28;20025;-67
2022/06/24 09:20:55;;;;;;;6.53;2.30;;;;;;;32.55;31.32;99605.47;5037406;28;20366;-67
2022/06/24 09:23:21;;;;;;;6.20;2.58;;;;;;;32.37;31.48;99596.31;5037598;28;20048;-67
2022/06/24 09:25:57;;;;;;;3.85;2.15;;;;;;;32.29;30.21;99594.31;5037266;28;20025;-67
2022/06/24 09:28:24;;;;;;;9.40;2.15;;;;;;;32.30;31.40;99581.41;5037267;28;20073;-67
2022/06/24 09:30:50;;;;;;;5.07;2.38;;;;;;;32.40;31.18;99589.41;5037845;28;20076;-67
2022/06/24 09:33:17;;;;;;;7.20;2.25;;;;;;;32.34;31.09;99585.16;5036770;28;20037;-67
2022/06/24 09:35:43;;;;;;;7.45;2.60;;;;;;;32.38;30.67;99589.72;5036832;28;20025;-67
2022/06/24 09:38:09;;;;;;;3.88;2.00;;;;;;;32.34;29.68;99593.38;5037587;28;20042;-67
2022/06/24 09:40:34;;;;;;;7.35;4.20;;;;;;;32.24;30.46;99588.09;5036511;28;20030;-67
2022/06/24 09:43:09;;;;;;;13.38;2.78;;;;;;;31.89;31.16;99595.16;5037137;28;20100;-67
2022/06/24 09:45:48;;;;;;;6.40;2.58;;;;;;;31.75;30.66;99581.47;5037579;28;20077;-67
2022/06/24 09:48:37;;;;;;;5.28;2.50;;;;;;;31.48;30.16;99581.47;5036731;28;20101;-67
2022/06/24 09:51:05;;;;;;;3.28;2.00;;;;;;;31.47;29.69;99579.84;5037221;28;20073;-67
2022/06/24 09:53:35;;;;;;;6.53;2.42;;;;;;;31.23;29.25;99575.38;5036993;28;20168;-67
2022/06/24 09:56:02;;;;;;;5.93;2.10;;;;;;;31.06;28.96;99586.84;5036795;28;20136;-69
2022/06/24 09:58:28;;;;;;;5.13;2.17;;;;;;;31.08;29.52;99581.88;5037179;28;20069;-69
2022/06/24 10:00:54;;;;;;;7.55;2.00;;;;;;;30.98;29.50;99579.34;5034833;28;20382;-69
2022/06/24 10:03:19;;;;;;;4.25;2.20;;;;;;;30.99;29.15;99572.75;5036833;28;20052;-70
2022/06/24 10:05:48;;;;;;;5.72;1.92;;;;;;;30.94;29.34;99581.03;5037211;28;20033;-69
2022/06/24 10:08:17;;;;;;;6.93;2.00;;;;;;;30.86;30.20;99579.00;5035637;28;20044;-70
2022/06/24 10:10:45;;;;;;;6.13;2.13;;;;;;;30.92;29.20;99575.06;5036784;28;20041;-67
2022/06/24 10:13:21;;;;;;;9.98;3.50;;;;;;;30.92;30.85;99575.06;5036570;28;20049;-67
2022/06/24 10:15:48;;;;;;;4.78;2.85;;;;;;;30.65;30.18;99574.97;5036145;28;20349;-67
2022/06/24 10:18:15;;;;;;;8.75;3.17;;;;;;;30.60;30.72;99580.53;5036085;28;20056;-67
2022/06/24 10:20:46;;;;;;;6.82;2.30;;;;;;;30.62;29.73;99570.94;5035845;28;20029;-67
2022/06/24 10:23:39;;;;;;;6.60;2.13;;;;;;;30.78;28.32;99563.28;5036730;28;20351;-67
2022/06/24 10:26:10;;;;;;;8.43;2.10;;;;;;;30.59;29.52;99563.31;5038049;28;20075;-69
2022/06/24 10:29:00;;;;;;;5.35;2.40;;;;;;;30.57;30.61;99564.69;5041966;28;20710;-69
2022/06/24 10:31:37;;;;;;;6.32;2.15;;;;;;;30.49;28.40;99574.38;5041120;28;20208;-69
2022/06/24 10:34:03;;;;;;;4.80;2.00;;;;;;;30.64;28.35;99565.16;5040635;28;20049;-70
2022/06/24 10:36:32;;;;;;;7.15;2.13;;;;;;;30.59;28.06;99566.06;5040509;28;20061;-69
2022/06/24 10:39:15;;;;;;;3.95;1.95;;;;;;;30.46;29.46;99566.78;5040697;28;20087;-69
2022/06/24 10:41:41;;;;;;;5.57;2.58;;;;;;;30.45;29.73;99562.44;5040210;28;20079;-70
2022/06/24 10:44:36;;;;;;;6.93;2.50;;;;;;;30.62;28.99;99567.38;5041009;28;20025;-70
2022/06/24 10:47:04;;;;;;;4.70;2.20;;;;;;;30.75;29.06;99570.16;5041192;28;20029;-69
2022/06/24 10:49:48;;;;;;;5.55;1.98;;;;;;;30.76;28.26;99560.03;5038451;28;20045;-67
2022/06/24 10:52:28;;;;;;;;;;;;;;;30.77;27.79;99556.19;5039469;28;20282;-67
2022/06/24 10:55:20;;;;;;;3.05;1.75;;;;;;;30.88;27.75;99554.91;5039234;28;19921;-67
2022/06/24 10:57:47;;;;;;;4.13;2.15;;;;;;;30.83;29.25;99549.53;5038945;28;20041;-67
2022/06/24 11:00:14;;;;;;;6.05;2.42;;;;;;;30.66;30.19;99549.28;5038141;28;20068;-67
2022/06/24 11:02:40;;;;;;;4.82;2.00;;;;;;;30.87;28.91;99569.69;5038023;28;20111;-67
2022/06/24 11:05:11;;;;;;;4.70;2.15;;;;;;;30.93;29.12;99549.34;5038949;28;20200;-67
2022/06/24 11:07:48;;;;;;;7.38;2.03;;;;;;;31.02;28.40;99569.41;5035461;28;20242;-67
2022/06/24 11:10:30;;;;;;;4.80;2.05;;;;;;;30.97;28.59;99566.78;5039462;28;20018;-67
2022/06/24 11:12:58;;;;;;;4.88;2.10;;;;;;;30.90;28.07;99562.81;5038564;28;20042;-69
2022/06/24 11:15:34;;;;;;;4.05;2.03;;;;;;;30.86;28.57;99562.59;5038005;28;20025;-70
2022/06/24 11:18:14;;;;;;;5.80;2.00;;;;;;;30.89;29.36;99558.44;5038617;28;20041;-69
2022/06/24 11:20:47;;;;;;;3.80;2.00;;;;;;;31.04;28.91;99566.38;5038677;28;20020;-70
2022/06/24 11:23:15;;;;;;;4.78;2.20;;;;;;;31.03;29.05;99564.75;5038804;28;20025;-70
2022/06/24 11:25:59;;;;;;;5.47;2.17;;;;;;;31.24;29.53;99557.84;5037673;28;20033;-67
2022/06/24 11:28:33;;;;;;;3.08;2.20;;;;;;;31.15;29.51;99553.34;5036236;28;20029;-67
2022/06/24 11:31:23;;;;;;;4.68;1.88;;;;;;;31.20;29.62;99556.00;5039107;28;20033;-67
2022/06/24 11:34:10;;;;;;;6.90;2.20;;;;;;;31.26;29.51;99565.75;5038654;28;20041;-67
2022/06/24 11:36:38;;;;;;;5.00;1.98;;;;;;;31.27;29.44;99559.97;5038718;28;20049;-67
2022/06/24 11:39:11;;;;;;;3.83;2.05;;;;;;;31.48;28.68;99560.38;5039175;28;20041;-67
2022/06/24 11:41:46;;;;;;;3.92;1.70;;;;;;;31.22;28.66;99560.06;5038429;28;20035;-67
2022/06/24 11:44:12;;;;;;;5.70;2.40;;;;;;;30.78;30.81;99555.91;5039834;28;20057;-67